createdAt,value
2022-10-14T00:01:23.277Z,101048.09
2022-10-14T00:03:53.185Z,101056.06
2022-10-14T00:06:24.156Z,101059.69
2022-10-14T00:08:53.363Z,101051.34
2022-10-14T00:11:23.214Z,101052.53
2022-10-14T00:13:52.134Z,101048.84
2022-10-14T00:16:22.257Z,101054.16
2022-10-14T00:18:52.099Z,101046.34
2022-10-14T00:21:20.966Z,101054.47
2022-10-14T00:23:49.145Z,101042.91
2022-10-14T00:26:19.378Z,101031.41
2022-10-14T00:28:47.368Z,101028.06
2022-10-14T00:31:16.401Z,101026.50
2022-10-14T00:33:45.451Z,101023.22
2022-10-14T00:36:16.419Z,101029.47
2022-10-14T00:38:45.327Z,101028.28
2022-10-14T00:41:14.480Z,101030.59
2022-10-14T00:43:58.813Z,101031.28
2022-10-14T00:46:29.197Z,101026.91
2022-10-14T00:48:58.048Z,101029.66
2022-10-14T00:51:27.585Z,101028.66
2022-10-14T00:53:55.468Z,101018.25
2022-10-14T00:56:28.288Z,101019.19
2022-10-14T00:58:56.813Z,101024.47
2022-10-14T01:01:24.967Z,101016.41
2022-10-14T01:03:55.189Z,101007.66
2022-10-14T01:07:00.525Z,101012.63
2022-10-14T01:09:34.898Z,101001.91
2022-10-14T01:12:29.776Z,101002.66
2022-10-14T01:15:05.266Z,100999.28
2022-10-14T01:17:45.819Z,100985.16
2022-10-14T01:20:42.876Z,100986.28
2022-10-14T01:23:40.887Z,100977.59
2022-10-14T01:26:33.416Z,100971.31
2022-10-14T01:29:16.273Z,100957.25
2022-10-14T01:31:48.986Z,100962.38
2022-10-14T01:34:25.504Z,100956.97
2022-10-14T01:37:00.371Z,100955.19
2022-10-14T01:39:33.927Z,100955.13
2022-10-14T01:42:05.914Z,100931.72
2022-10-14T01:44:36.468Z,100944.75
2022-10-14T01:47:08.167Z,100934.19
2022-10-14T01:49:39.987Z,100936.09
2022-10-14T01:52:11.228Z,100929.75
2022-10-14T01:54:42.479Z,100927.75
2022-10-14T01:57:14.440Z,100922.84
2022-10-14T01:59:44.436Z,100898.41
2022-10-14T02:02:14.677Z,100909.59
2022-10-14T02:04:42.602Z,100907.63
2022-10-14T02:07:21.414Z,100886.97
2022-10-14T02:09:54.831Z,100893.75
2022-10-14T02:12:33.729Z,100891.16
2022-10-14T02:15:12.009Z,100898.19
2022-10-14T02:17:49.985Z,100877.16
2022-10-14T02:20:27.943Z,100886.66
2022-10-14T02:23:01.982Z,100885.69
2022-10-14T02:25:33.720Z,100891.84
2022-10-14T02:28:03.425Z,100882.06
2022-10-14T02:30:36.665Z,100884.66
2022-10-14T02:33:06.310Z,100875.13
2022-10-14T02:35:36.068Z,100878.59
2022-10-14T02:38:06.341Z,100876.69
2022-10-14T02:40:39.134Z,100877.50
2022-10-14T02:43:09.971Z,100860.22
2022-10-14T02:45:41.613Z,100865.34
2022-10-14T02:48:11.965Z,100867.25
2022-10-14T02:50:40.327Z,100855.88
2022-10-14T02:53:08.219Z,100847.06
2022-10-14T02:55:36.203Z,100848.31
2022-10-14T02:58:04.009Z,100850.97
2022-10-14T03:00:31.887Z,100838.59
2022-10-14T03:02:59.743Z,100843.25
2022-10-14T03:05:29.516Z,100844.53
2022-10-14T03:07:57.474Z,100837.72
2022-10-14T03:10:25.347Z,100836.00
2022-10-14T03:12:53.238Z,100828.81
2022-10-14T03:15:21.345Z,100830.47
2022-10-14T03:17:50.735Z,100824.38
2022-10-14T03:20:18.919Z,100817.63
2022-10-14T03:22:48.451Z,100813.41
2022-10-14T03:25:16.750Z,100814.94
2022-10-14T03:27:44.884Z,100813.09
2022-10-14T03:30:13.443Z,100805.63
2022-10-14T03:32:41.570Z,100812.56
2022-10-14T03:35:10.346Z,100810.72
2022-10-14T03:37:38.490Z,100809.84
2022-10-14T03:40:10.315Z,100802.13
2022-10-14T03:42:40.587Z,100802.16
2022-10-14T03:45:09.551Z,100809.00
2022-10-14T03:47:37.571Z,100807.41
2022-10-14T03:50:12.643Z,100812.81
2022-10-14T03:52:46.439Z,100803.94
2022-10-14T03:55:16.322Z,100807.31
2022-10-14T03:57:44.180Z,100807.31
2022-10-14T04:00:13.789Z,100805.63
2022-10-14T04:02:45.113Z,100801.06
2022-10-14T04:05:14.321Z,100800.03
2022-10-14T04:07:51.799Z,100806.03
2022-10-14T04:10:22.140Z,100791.16
2022-10-14T04:12:53.506Z,100796.34
2022-10-14T04:15:21.626Z,100800.66
2022-10-14T04:17:49.716Z,100796.25
2022-10-14T04:20:18.513Z,100788.13
2022-10-14T04:22:47.729Z,100781.88
2022-10-14T04:25:19.817Z,100768.78
2022-10-14T04:27:50.107Z,100781.75
2022-10-14T04:30:18.058Z,100767.56
2022-10-14T04:32:46.771Z,100760.47
2022-10-14T04:35:15.036Z,100750.78
2022-10-14T04:37:43.715Z,100751.47
2022-10-14T04:40:12.936Z,100747.78
2022-10-14T04:42:45.232Z,100740.66
2022-10-14T04:45:14.679Z,100738.75
2022-10-14T04:47:48.460Z,100739.97
2022-10-14T04:50:16.993Z,100729.44
2022-10-14T04:52:47.648Z,100723.72
2022-10-14T04:55:15.595Z,100728.09
2022-10-14T04:57:44.260Z,100719.19
2022-10-14T05:00:15.743Z,100715.09
2022-10-14T05:02:48.135Z,100717.69
2022-10-14T05:05:17.451Z,100714.97
2022-10-14T05:07:45.627Z,100699.91
2022-10-14T05:10:13.688Z,100694.47
2022-10-14T05:12:42.646Z,100690.84
2022-10-14T05:15:14.991Z,100667.44
2022-10-14T05:17:45.582Z,100679.28
2022-10-14T05:20:13.912Z,100689.53
2022-10-14T05:22:41.910Z,100686.94
2022-10-14T05:25:10.297Z,100673.34
2022-10-14T05:27:38.223Z,100662.13
2022-10-14T05:30:08.121Z,100673.41
2022-10-14T05:32:38.178Z,100675.13
2022-10-14T05:35:08.316Z,100676.16
2022-10-14T05:37:37.401Z,100676.84
2022-10-14T05:40:07.418Z,100664.66
2022-10-14T05:42:35.251Z,100663.78
2022-10-14T05:45:03.082Z,100666.38
2022-10-14T05:47:30.970Z,100653.19
2022-10-14T05:50:01.427Z,100663.72
2022-10-14T05:52:34.384Z,100659.22
2022-10-14T05:55:02.684Z,100646.78
2022-10-14T05:57:30.587Z,100649.38
2022-10-14T05:59:58.798Z,100607.81
2022-10-14T06:02:26.877Z,100611.56
2022-10-14T06:04:54.793Z,100611.28
2022-10-14T06:07:24.799Z,100609.53
2022-10-14T06:09:54.085Z,100589.22
2022-10-14T06:12:25.264Z,100579.34
2022-10-14T06:14:53.228Z,100587.97
2022-10-14T06:17:21.285Z,100601.16
2022-10-14T06:23:37.065Z,100593.22
2022-10-14T06:26:09.957Z,100604.94
2022-10-14T06:28:42.625Z,100605.06
2022-10-14T06:31:11.083Z,100612.22
2022-10-14T06:33:39.083Z,100594.63
2022-10-14T06:36:08.159Z,100586.00
2022-10-14T06:38:38.686Z,100599.94
2022-10-14T06:41:09.516Z,100605.41
2022-10-14T06:43:39.075Z,100603.63
2022-10-14T06:46:08.717Z,100600.50
2022-10-14T06:48:38.696Z,100604.88
2022-10-14T06:51:07.628Z,100597.34
2022-10-14T06:53:38.837Z,100599.75
2022-10-14T06:56:12.697Z,100585.38
2022-10-14T06:58:41.760Z,100591.53
2022-10-14T07:01:10.476Z,100581.44
2022-10-14T07:03:42.011Z,100584.94
2022-10-14T07:06:10.512Z,100571.56
2022-10-14T07:08:39.313Z,100584.47
2022-10-14T07:11:09.499Z,100560.22
2022-10-14T07:13:40.322Z,100569.38
2022-10-14T07:16:09.441Z,100556.38
2022-10-14T07:18:37.484Z,100574.81
2022-10-14T07:21:11.050Z,100566.38
2022-10-14T07:23:39.006Z,100546.88
2022-10-14T07:26:07.513Z,100570.16
2022-10-14T07:28:35.823Z,100554.50
2022-10-14T07:31:10.196Z,100553.91
2022-10-14T07:34:00.361Z,100547.75
2022-10-14T07:36:34.565Z,100543.13
2022-10-14T07:39:04.473Z,100538.13
2022-10-14T07:41:33.048Z,100550.53
2022-10-14T07:44:05.811Z,100545.25
2022-10-14T07:46:48.707Z,100521.28
2022-10-14T07:49:18.973Z,100553.19
2022-10-14T07:51:50.133Z,100547.09
2022-10-14T07:54:24.460Z,100546.31
2022-10-14T07:56:53.219Z,100535.69
2022-10-14T07:59:23.215Z,100526.53
2022-10-14T08:01:57.750Z,100532.41
2022-10-14T08:04:30.819Z,100518.13
2022-10-14T08:06:59.823Z,100524.13
2022-10-14T08:09:28.054Z,100514.97
2022-10-14T08:15:30.420Z,100505.84
2022-10-14T08:18:02.684Z,100495.00
2022-10-14T08:20:32.372Z,100493.34
2022-10-14T08:23:01.948Z,100499.91
2022-10-14T08:25:30.834Z,100473.78
2022-10-14T08:27:58.832Z,100506.16
2022-10-14T08:30:26.928Z,100493.03
2022-10-14T08:32:55.340Z,100497.25
2022-10-14T08:35:42.782Z,100486.03
2022-10-14T08:38:25.261Z,100491.94
2022-10-14T08:41:05.682Z,100491.50
2022-10-14T08:43:37.789Z,100489.75
2022-10-14T08:46:15.338Z,100477.88
2022-10-14T08:48:45.751Z,100467.97
2022-10-14T08:51:20.118Z,100468.75
2022-10-14T08:53:56.174Z,100469.09
2022-10-14T08:56:25.546Z,100451.72
2022-10-14T09:02:01.623Z,100481.59
2022-10-14T09:05:12.480Z,100484.53
2022-10-14T09:14:53.516Z,100487.09
2022-10-14T09:17:34.118Z,100473.88
2022-10-14T09:20:30.836Z,100503.03
2022-10-14T09:23:10.807Z,100492.41
2022-10-14T09:26:25.977Z,100473.03
2022-10-14T09:28:56.755Z,100480.16
2022-10-14T09:34:24.029Z,100490.84
2022-10-14T09:47:43.081Z,100487.81
2022-10-14T09:53:59.496Z,100497.41
2022-10-14T09:59:44.367Z,100502.59
2022-10-14T10:02:43.038Z,100491.31
2022-10-14T10:05:34.034Z,100480.41
2022-10-14T10:08:17.735Z,100490.53
2022-10-14T10:11:06.874Z,100487.66
2022-10-14T10:13:51.063Z,100488.44
2022-10-14T10:16:24.650Z,100512.13
2022-10-14T10:21:54.952Z,100513.75
2022-10-14T10:24:28.794Z,100497.41
2022-10-14T10:27:03.365Z,100489.78
2022-10-14T10:29:35.955Z,100497.25
2022-10-14T10:32:18.630Z,100486.09
2022-10-14T10:35:08.966Z,100490.06
2022-10-14T10:37:48.832Z,100489.13
2022-10-14T10:40:37.848Z,100492.22
2022-10-14T10:43:49.262Z,100483.91
2022-10-14T10:46:33.986Z,100478.25
2022-10-14T10:49:12.731Z,100473.25
2022-10-14T10:51:53.440Z,100461.41
2022-10-14T10:54:33.583Z,100459.84
2022-10-14T10:57:09.649Z,100471.88
2022-10-14T11:00:09.433Z,100451.34
2022-10-14T11:02:56.833Z,100464.84
2022-10-14T11:05:53.165Z,100459.00
2022-10-14T11:08:57.793Z,100449.69
2022-10-14T11:11:47.222Z,100468.56
2022-10-14T11:14:38.016Z,100457.16
2022-10-14T11:17:14.348Z,100455.88
2022-10-14T11:19:51.649Z,100463.25
2022-10-14T11:22:35.366Z,100458.63
2022-10-14T11:25:16.693Z,100458.56
2022-10-14T11:27:52.108Z,100463.66
2022-10-14T11:30:25.370Z,100454.47
2022-10-14T11:33:11.235Z,100441.66
2022-10-14T12:19:49.762Z,100437.50
2022-10-14T12:41:44.068Z,100416.44
2022-10-14T12:44:18.840Z,100426.03
2022-10-14T12:46:49.416Z,100412.59
2022-10-14T12:49:27.502Z,100415.00
2022-10-14T12:51:57.771Z,100414.47
2022-10-14T12:54:27.815Z,100416.50
2022-10-14T12:56:59.938Z,100396.22
2022-10-14T12:59:31.259Z,100412.06
2022-10-14T13:02:06.238Z,100415.94
2022-10-14T13:04:35.283Z,100420.66
2022-10-14T13:07:42.024Z,100420.25
2022-10-14T13:10:55.105Z,100413.91
2022-10-14T13:13:52.642Z,100405.81
2022-10-14T13:16:59.114Z,100409.25
2022-10-14T13:20:04.551Z,100402.72
2022-10-14T13:22:49.563Z,100406.81
2022-10-14T13:25:22.296Z,100382.06
2022-10-14T13:28:16.352Z,100405.09
2022-10-14T13:31:03.825Z,100370.34
2022-10-14T13:33:40.769Z,100366.38
2022-10-14T13:36:25.316Z,100389.59
2022-10-14T13:38:57.080Z,100380.72
2022-10-14T13:41:30.843Z,100381.31
2022-10-14T13:44:03.407Z,100358.56
2022-10-14T13:49:53.340Z,100359.72
2022-10-14T13:52:25.985Z,100366.69
2022-10-14T13:55:14.784Z,100364.69
2022-10-14T13:58:12.483Z,100366.81
2022-10-14T14:00:54.058Z,100342.91
2022-10-14T14:03:48.186Z,100352.59
2022-10-14T14:09:36.685Z,100352.00
2022-10-14T14:12:06.686Z,100326.75
2022-10-14T14:14:41.166Z,100333.75
2022-10-14T14:17:20.148Z,100333.84
2022-10-14T14:19:53.296Z,100334.78
2022-10-14T14:22:27.644Z,100333.47
2022-10-14T14:25:46.710Z,100336.50
2022-10-14T14:28:15.485Z,100328.63
2022-10-14T14:30:54.537Z,100324.97
2022-10-14T14:33:30.794Z,100321.94
2022-10-14T14:36:02.942Z,100334.09
2022-10-14T14:38:34.039Z,100315.09
2022-10-14T14:41:04.136Z,100324.13
2022-10-14T14:43:44.700Z,100323.84
2022-10-14T14:46:41.953Z,100330.97
2022-10-14T14:49:34.661Z,100327.19
2022-10-14T14:52:21.726Z,100331.44
2022-10-14T14:54:51.999Z,100329.19
2022-10-14T14:57:25.197Z,100325.56
2022-10-14T15:00:19.702Z,100323.84
2022-10-14T15:03:01.707Z,100329.56
2022-10-14T15:05:35.511Z,100327.25
2022-10-14T15:08:22.392Z,100329.75
2022-10-14T15:10:51.455Z,100308.16
2022-10-14T15:13:32.466Z,100312.53
2022-10-14T15:16:05.508Z,100319.09
2022-10-14T15:18:54.129Z,100320.97
2022-10-14T15:21:54.477Z,100305.19
2022-10-14T15:24:22.767Z,100295.00
2022-10-14T15:26:57.880Z,100307.66
2022-10-14T15:29:29.805Z,100313.00
2022-10-14T15:32:12.755Z,100307.88
2022-10-14T15:34:46.467Z,100309.00
2022-10-14T15:37:17.492Z,100313.38
2022-10-14T15:40:08.391Z,100309.47
2022-10-14T15:42:36.567Z,100281.28
2022-10-14T15:45:06.483Z,100278.53
2022-10-14T15:47:36.127Z,100273.88
2022-10-14T15:50:12.640Z,100275.59
2022-10-14T15:52:45.870Z,100274.91
2022-10-14T15:55:21.090Z,100271.41
2022-10-14T15:57:50.079Z,100281.59
2022-10-14T16:00:23.877Z,100262.34
2022-10-14T16:03:04.418Z,100273.59
2022-10-14T16:05:35.432Z,100287.78
2022-10-14T16:08:13.056Z,100278.72
2022-10-14T16:10:44.639Z,100272.44
2022-10-14T16:13:16.604Z,100258.56
2022-10-14T16:15:50.462Z,100267.69
2022-10-14T16:18:21.867Z,100271.88
2022-10-14T16:20:53.681Z,100248.00
2022-10-14T16:23:29.698Z,100250.25
2022-10-14T16:26:03.819Z,100238.22
2022-10-14T16:28:40.593Z,100270.44
2022-10-14T16:31:46.144Z,100239.34
2022-10-14T16:41:04.198Z,100209.94
2022-10-14T16:43:32.578Z,100227.91
2022-10-14T16:50:10.349Z,100226.03
2022-10-14T16:53:09.272Z,100222.78
2022-10-14T16:55:39.791Z,100240.03
2022-10-14T16:58:09.556Z,100245.63
2022-10-14T17:00:37.611Z,100232.88
2022-10-14T17:03:05.931Z,100233.63
2022-10-14T17:05:37.058Z,100234.13
2022-10-14T17:08:06.929Z,100243.53
2022-10-14T17:10:35.222Z,100246.69
2022-10-14T17:13:03.520Z,100250.19
2022-10-14T17:15:33.340Z,100231.16
2022-10-14T17:18:01.715Z,100237.84
2022-10-14T17:20:33.244Z,100226.97
2022-10-14T17:23:01.327Z,100224.13
2022-10-14T17:25:30.818Z,100227.72
2022-10-14T17:28:04.397Z,100252.00
2022-10-14T17:30:33.831Z,100239.72
2022-10-14T17:33:10.018Z,100257.06
2022-10-14T17:35:38.425Z,100250.66
2022-10-14T17:38:07.748Z,100266.72
2022-10-14T17:40:41.719Z,100240.88
2022-10-14T17:43:10.499Z,100272.81
2022-10-14T17:45:43.505Z,100271.88
2022-10-14T17:48:12.583Z,100279.84
2022-10-14T17:50:40.625Z,100259.41
2022-10-14T17:53:13.302Z,100271.50
2022-10-14T17:55:42.511Z,100257.88
2022-10-14T17:58:22.292Z,100270.84
2022-10-14T18:01:01.792Z,100259.88
2022-10-14T18:03:52.619Z,100268.44
2022-10-14T18:06:37.921Z,100255.13
2022-10-14T18:09:10.001Z,100244.16
2022-10-14T18:12:09.633Z,100237.69
2022-10-14T18:15:17.144Z,100252.22
2022-10-14T18:18:10.862Z,100245.00
2022-10-14T18:21:11.028Z,100259.66
2022-10-14T18:23:41.660Z,100250.31
2022-10-14T18:26:23.474Z,100250.16
2022-10-14T18:28:55.917Z,100244.22
2022-10-14T18:34:24.782Z,100250.16
2022-10-14T18:36:56.943Z,100264.53
2022-10-14T18:39:36.079Z,100246.59
2022-10-14T18:44:57.781Z,100251.91
2022-10-14T18:47:29.351Z,100253.53
2022-10-14T18:50:06.312Z,100256.28
2022-10-14T18:52:37.680Z,100258.94
2022-10-14T18:55:22.081Z,100256.28
2022-10-14T18:58:03.990Z,100257.31
2022-10-14T19:00:44.308Z,100252.63
2022-10-14T19:03:15.709Z,100265.38
2022-10-14T19:06:10.908Z,100260.25
2022-10-14T19:08:47.292Z,100253.06
2022-10-14T19:11:55.661Z,100260.69
2022-10-14T19:14:32.838Z,100245.44
2022-10-14T19:17:15.472Z,100235.78
2022-10-14T19:19:46.085Z,100258.72
2022-10-14T19:22:30.049Z,100246.31
2022-10-14T19:24:59.593Z,100247.00
2022-10-14T19:27:37.936Z,100264.44
2022-10-14T19:30:07.287Z,100268.03
2022-10-14T19:32:36.401Z,100267.16
2022-10-14T19:35:04.956Z,100255.16
2022-10-14T19:37:34.606Z,100235.88
2022-10-14T19:40:02.638Z,100247.88
2022-10-14T19:42:30.788Z,100241.44
2022-10-14T19:44:59.611Z,100250.00
2022-10-14T19:47:27.708Z,100249.25
2022-10-14T19:49:57.106Z,100242.22
2022-10-14T19:52:26.427Z,100253.78
2022-10-14T19:54:55.853Z,100247.88
2022-10-14T19:57:24.492Z,100252.53
2022-10-14T20:00:00.511Z,100228.00
2022-10-14T20:02:31.992Z,100234.09
2022-10-14T20:05:00.513Z,100226.69
2022-10-14T20:07:29.541Z,100232.38
2022-10-14T20:10:02.019Z,100222.16
2022-10-14T20:12:31.160Z,100233.41
2022-10-14T20:14:59.283Z,100232.78
2022-10-14T20:17:28.000Z,100241.00
2022-10-14T20:19:56.456Z,100228.69
2022-10-14T20:22:25.785Z,100219.88
2022-10-14T20:24:53.879Z,100224.81
2022-10-14T20:27:23.706Z,100223.81
2022-10-14T20:29:51.980Z,100218.81
2022-10-14T20:32:21.491Z,100234.44
2022-10-14T20:34:49.773Z,100229.28
2022-10-14T20:37:17.759Z,100231.84
2022-10-14T20:39:45.767Z,100228.59
2022-10-14T20:45:25.454Z,100200.56
2022-10-14T20:47:54.239Z,100201.31
2022-10-14T20:50:23.179Z,100189.53
2022-10-14T20:52:56.158Z,100189.34
2022-10-14T20:55:26.137Z,100174.59
2022-10-14T20:57:54.290Z,100189.34
2022-10-14T21:00:23.952Z,100190.47
2022-10-14T21:02:52.212Z,100174.94
2022-10-14T21:05:20.803Z,100172.13
2022-10-14T21:07:48.837Z,100184.38
2022-10-14T21:10:18.556Z,100184.09
2022-10-14T21:12:48.797Z,100185.56
2022-10-14T21:15:33.590Z,100171.75
2022-10-14T21:18:01.496Z,100170.81
2022-10-14T21:20:30.607Z,100177.69
2022-10-14T21:23:00.683Z,100177.84
2022-10-14T21:25:28.731Z,100171.75
2022-10-14T21:27:57.997Z,100180.56
2022-10-14T21:30:26.287Z,100167.59
2022-10-14T21:33:03.686Z,100183.06
2022-10-14T21:35:34.217Z,100169.47
2022-10-14T21:38:06.168Z,100165.50
2022-10-14T21:40:34.246Z,100144.97
2022-10-14T21:43:02.293Z,100156.09
2022-10-14T21:45:30.735Z,100158.69
2022-10-14T21:47:59.653Z,100152.59
2022-10-14T21:50:33.638Z,100130.91
2022-10-14T21:53:03.549Z,100140.19
2022-10-14T21:55:31.553Z,100130.56
2022-10-14T21:58:00.849Z,100131.53
2022-10-14T22:00:29.890Z,100129.03
2022-10-14T22:02:58.845Z,100137.06
2022-10-14T22:05:26.752Z,100124.94
2022-10-14T22:07:56.121Z,100133.69
2022-10-14T22:10:43.775Z,100128.53
2022-10-14T22:13:12.531Z,100131.03
2022-10-14T22:15:43.923Z,100124.88
2022-10-14T22:18:11.835Z,100125.59
2022-10-14T22:20:39.728Z,100120.13
2022-10-14T22:23:09.036Z,100110.38
2022-10-14T22:25:36.896Z,100106.06
2022-10-14T22:28:05.616Z,100102.78
2022-10-14T22:30:35.145Z,100089.09
2022-10-14T22:33:03.095Z,100099.06
2022-10-14T22:35:31.156Z,100084.56
2022-10-14T22:37:59.095Z,100096.91
2022-10-14T22:40:28.443Z,100083.78
2022-10-14T22:42:56.346Z,100082.75
2022-10-14T22:45:24.361Z,100083.25
2022-10-14T22:47:52.527Z,100079.84
2022-10-14T22:50:20.445Z,100070.34
2022-10-14T22:52:49.384Z,100069.84
2022-10-14T22:55:17.363Z,100066.47
2022-10-14T22:58:04.552Z,100050.03
2022-10-14T23:00:32.797Z,100058.06
2022-10-14T23:03:00.824Z,100061.94
2022-10-14T23:05:31.053Z,100044.88
2022-10-14T23:07:58.980Z,100065.53
2022-10-14T23:10:26.953Z,100054.06
2022-10-14T23:12:55.033Z,100043.53
2022-10-14T23:15:26.284Z,100034.97
2022-10-14T23:17:59.495Z,100044.03
2022-10-14T23:20:28.389Z,100042.53
2022-10-14T23:23:00.712Z,100043.88
2022-10-14T23:25:30.647Z,100043.97
2022-10-14T23:27:59.634Z,100029.50
2022-10-14T23:30:31.790Z,100034.03
2022-10-14T23:32:59.709Z,100031.38
2022-10-14T23:35:27.531Z,100025.22
2022-10-14T23:37:55.398Z,100018.88
2022-10-14T23:40:24.318Z,100027.78
2022-10-14T23:42:54.234Z,99999.38
2022-10-14T23:45:24.108Z,99999.78
2022-10-14T23:47:53.397Z,100011.53
2022-10-14T23:50:21.416Z,100006.13
2022-10-14T23:52:49.342Z,100008.97
2022-10-14T23:55:17.803Z,100014.09
2022-10-14T23:57:45.700Z,100007.16
